sensor_id;sensor_type;location;lat;lon;timestamp;P1;durP1;ratioP1;P2;durP2;ratioP2
28724;SDS011;43472;48.980;9.646;2023-04-23T00:05:01;4.97;;;2.38;;
28724;SDS011;43472;48.980;9.646;2023-04-23T00:10:06;4.18;;;2.55;;
28724;SDS011;43472;48.980;9.646;2023-04-23T00:15:09;4.78;;;2.53;;
28724;SDS011;43472;48.980;9.646;2023-04-23T00:20:13;5.55;;;2.63;;
28724;SDS011;43472;48.980;9.646;2023-04-23T00:25:18;4.35;;;2.42;;
28724;SDS011;43472;48.980;9.646;2023-04-23T00:30:20;3.33;;;2.38;;
28724;SDS011;43472;48.980;9.646;2023-04-23T00:35:21;4.50;;;2.50;;
28724;SDS011;43472;48.980;9.646;2023-04-23T00:40:23;1.98;;;1.73;;
28724;SDS011;43472;48.980;9.646;2023-04-23T00:45:25;7.32;;;2.20;;
28724;SDS011;43472;48.980;9.646;2023-04-23T00:50:27;3.53;;;2.22;;
28724;SDS011;43472;48.980;9.646;2023-04-23T00:55:29;4.50;;;2.45;;
28724;SDS011;43472;48.980;9.646;2023-04-23T01:00:31;3.90;;;2.25;;
28724;SDS011;43472;48.980;9.646;2023-04-23T01:05:35;5.57;;;2.33;;
28724;SDS011;43472;48.980;9.646;2023-04-23T01:10:38;2.28;;;1.90;;
28724;SDS011;43472;48.980;9.646;2023-04-23T01:15:39;7.38;;;2.03;;
28724;SDS011;43472;48.980;9.646;2023-04-23T01:20:42;11.40;;;3.30;;
28724;SDS011;43472;48.980;9.646;2023-04-23T01:25:45;11.10;;;2.47;;
28724;SDS011;43472;48.980;9.646;2023-04-23T01:30:47;3.75;;;2.00;;
28724;SDS011;43472;48.980;9.646;2023-04-23T01:35:50;5.10;;;2.00;;
28724;SDS011;43472;48.980;9.646;2023-04-23T01:40:52;6.78;;;2.10;;
28724;SDS011;43472;48.980;9.646;2023-04-23T01:45:54;4.00;;;1.73;;
28724;SDS011;43472;48.980;9.646;2023-04-23T01:50:56;5.80;;;2.47;;
28724;SDS011;43472;48.980;9.646;2023-04-23T01:55:58;6.22;;;1.90;;
28724;SDS011;43472;48.980;9.646;2023-04-23T02:01:01;3.13;;;1.92;;
28724;SDS011;43472;48.980;9.646;2023-04-23T02:06:03;8.30;;;2.30;;
28724;SDS011;43472;48.980;9.646;2023-04-23T02:11:05;4.78;;;2.17;;
28724;SDS011;43472;48.980;9.646;2023-04-23T02:16:08;6.53;;;2.20;;
28724;SDS011;43472;48.980;9.646;2023-04-23T02:21:09;5.55;;;2.17;;
28724;SDS011;43472;48.980;9.646;2023-04-23T02:26:13;7.47;;;2.55;;
28724;SDS011;43472;48.980;9.646;2023-04-23T02:31:15;3.33;;;2.83;;
28724;SDS011;43472;48.980;9.646;2023-04-23T02:36:18;5.80;;;3.38;;
28724;SDS011;43472;48.980;9.646;2023-04-23T02:41:19;7.13;;;3.58;;
28724;SDS011;43472;48.980;9.646;2023-04-23T02:46:22;6.97;;;2.90;;
28724;SDS011;43472;48.980;9.646;2023-04-23T02:51:23;3.60;;;3.00;;
28724;SDS011;43472;48.980;9.646;2023-04-23T02:56:26;5.13;;;2.90;;
28724;SDS011;43472;48.980;9.646;2023-04-23T03:01:28;5.47;;;3.38;;
28724;SDS011;43472;48.980;9.646;2023-04-23T03:06:30;5.80;;;3.30;;
28724;SDS011;43472;48.980;9.646;2023-04-23T03:11:34;5.50;;;3.78;;
28724;SDS011;43472;48.980;9.646;2023-04-23T03:16:36;6.70;;;3.55;;
28724;SDS011;43472;48.980;9.646;2023-04-23T03:21:38;6.53;;;3.33;;
28724;SDS011;43472;48.980;9.646;2023-04-23T03:26:39;8.45;;;4.25;;
28724;SDS011;43472;48.980;9.646;2023-04-23T03:31:41;7.13;;;4.15;;
28724;SDS011;43472;48.980;9.646;2023-04-23T03:36:43;6.82;;;4.10;;
28724;SDS011;43472;48.980;9.646;2023-04-23T03:41:46;9.95;;;4.10;;
28724;SDS011;43472;48.980;9.646;2023-04-23T03:46:50;8.88;;;4.00;;
28724;SDS011;43472;48.980;9.646;2023-04-23T03:51:52;7.00;;;4.43;;
28724;SDS011;43472;48.980;9.646;2023-04-23T03:56:54;5.97;;;4.03;;
28724;SDS011;43472;48.980;9.646;2023-04-23T04:01:57;6.20;;;4.63;;
28724;SDS011;43472;48.980;9.646;2023-04-23T04:06:59;6.45;;;4.72;;
28724;SDS011;43472;48.980;9.646;2023-04-23T04:12:01;5.68;;;3.72;;
28724;SDS011;43472;48.980;9.646;2023-04-23T04:17:04;7.57;;;3.97;;
28724;SDS011;43472;48.980;9.646;2023-04-23T04:22:06;5.38;;;3.53;;
28724;SDS011;43472;48.980;9.646;2023-04-23T04:27:08;11.73;;;4.55;;
28724;SDS011;43472;48.980;9.646;2023-04-23T04:32:12;5.90;;;4.22;;
28724;SDS011;43472;48.980;9.646;2023-04-23T04:37:14;5.93;;;4.50;;
28724;SDS011;43472;48.980;9.646;2023-04-23T04:42:16;7.30;;;4.00;;
28724;SDS011;43472;48.980;9.646;2023-04-23T04:47:17;9.77;;;4.85;;
28724;SDS011;43472;48.980;9.646;2023-04-23T04:52:19;9.25;;;4.82;;
28724;SDS011;43472;48.980;9.646;2023-04-23T04:57:22;7.60;;;4.75;;
28724;SDS011;43472;48.980;9.646;2023-04-23T05:02:23;22.73;;;10.63;;
28724;SDS011;43472;48.980;9.646;2023-04-23T05:07:27;9.45;;;5.43;;
28724;SDS011;43472;48.980;9.646;2023-04-23T05:12:29;7.80;;;3.95;;
28724;SDS011;43472;48.980;9.646;2023-04-23T05:17:31;14.13;;;7.57;;
28724;SDS011;43472;48.980;9.646;2023-04-23T05:22:33;10.73;;;6.22;;
28724;SDS011;43472;48.980;9.646;2023-04-23T05:27:35;9.57;;;5.75;;
28724;SDS011;43472;48.980;9.646;2023-04-23T05:32:37;8.50;;;4.43;;
28724;SDS011;43472;48.980;9.646;2023-04-23T05:37:39;7.25;;;3.85;;
28724;SDS011;43472;48.980;9.646;2023-04-23T05:42:42;6.30;;;3.95;;
28724;SDS011;43472;48.980;9.646;2023-04-23T05:47:43;6.45;;;3.42;;
28724;SDS011;43472;48.980;9.646;2023-04-23T05:52:46;4.40;;;3.58;;
28724;SDS011;43472;48.980;9.646;2023-04-23T05:57:48;6.93;;;4.60;;
28724;SDS011;43472;48.980;9.646;2023-04-23T06:02:50;5.70;;;4.25;;
28724;SDS011;43472;48.980;9.646;2023-04-23T06:07:53;7.57;;;3.40;;
28724;SDS011;43472;48.980;9.646;2023-04-23T06:12:55;6.10;;;3.25;;
28724;SDS011;43472;48.980;9.646;2023-04-23T06:17:57;2.92;;;1.60;;
28724;SDS011;43472;48.980;9.646;2023-04-23T06:22:59;2.03;;;1.05;;
28724;SDS011;43472;48.980;9.646;2023-04-23T06:28:02;2.45;;;1.05;;
28724;SDS011;43472;48.980;9.646;2023-04-23T06:33:05;4.38;;;0.88;;
28724;SDS011;43472;48.980;9.646;2023-04-23T06:38:09;1.40;;;1.05;;
28724;SDS011;43472;48.980;9.646;2023-04-23T06:43:11;1.25;;;0.80;;
28724;SDS011;43472;48.980;9.646;2023-04-23T06:48:14;1.23;;;0.90;;
28724;SDS011;43472;48.980;9.646;2023-04-23T06:53:17;1.10;;;0.80;;
28724;SDS011;43472;48.980;9.646;2023-04-23T06:58:19;0.95;;;0.90;;
28724;SDS011;43472;48.980;9.646;2023-04-23T07:03:24;2.45;;;1.02;;
28724;SDS011;43472;48.980;9.646;2023-04-23T07:08:29;0.85;;;0.73;;
28724;SDS011;43472;48.980;9.646;2023-04-23T07:13:31;0.73;;;0.60;;
28724;SDS011;43472;48.980;9.646;2023-04-23T07:18:33;0.95;;;0.55;;
28724;SDS011;43472;48.980;9.646;2023-04-23T07:23:35;2.22;;;0.90;;
28724;SDS011;43472;48.980;9.646;2023-04-23T07:28:36;1.13;;;0.80;;
28724;SDS011;43472;48.980;9.646;2023-04-23T07:33:38;2.35;;;0.90;;
28724;SDS011;43472;48.980;9.646;2023-04-23T07:38:41;1.83;;;0.85;;
28724;SDS011;43472;48.980;9.646;2023-04-23T07:43:44;5.38;;;0.80;;
28724;SDS011;43472;48.980;9.646;2023-04-23T07:48:46;1.85;;;0.88;;
28724;SDS011;43472;48.980;9.646;2023-04-23T07:53:48;1.55;;;0.90;;
28724;SDS011;43472;48.980;9.646;2023-04-23T07:58:51;1.98;;;0.93;;
28724;SDS011;43472;48.980;9.646;2023-04-23T08:03:54;1.33;;;0.70;;
28724;SDS011;43472;48.980;9.646;2023-04-23T08:08:59;2.65;;;0.88;;
28724;SDS011;43472;48.980;9.646;2023-04-23T08:14:06;1.83;;;1.00;;
28724;SDS011;43472;48.980;9.646;2023-04-23T08:19:08;1.17;;;0.85;;
28724;SDS011;43472;48.980;9.646;2023-04-23T08:24:11;2.00;;;0.70;;
28724;SDS011;43472;48.980;9.646;2023-04-23T08:29:13;3.33;;;1.88;;
28724;SDS011;43472;48.980;9.646;2023-04-23T08:34:14;3.47;;;0.77;;
28724;SDS011;43472;48.980;9.646;2023-04-23T08:39:16;2.55;;;1.63;;
28724;SDS011;43472;48.980;9.646;2023-04-23T08:44:21;1.90;;;1.30;;
28724;SDS011;43472;48.980;9.646;2023-04-23T08:49:24;1.00;;;0.70;;
28724;SDS011;43472;48.980;9.646;2023-04-23T08:54:33;1.00;;;0.52;;
28724;SDS011;43472;48.980;9.646;2023-04-23T08:59:38;0.77;;;0.68;;
28724;SDS011;43472;48.980;9.646;2023-04-23T09:04:41;1.05;;;0.68;;
28724;SDS011;43472;48.980;9.646;2023-04-23T09:09:43;3.67;;;0.80;;
28724;SDS011;43472;48.980;9.646;2023-04-23T09:14:45;1.50;;;0.65;;
28724;SDS011;43472;48.980;9.646;2023-04-23T09:19:49;1.02;;;0.77;;
28724;SDS011;43472;48.980;9.646;2023-04-23T09:24:52;3.85;;;0.70;;
28724;SDS011;43472;48.980;9.646;2023-04-23T09:30:04;1.33;;;0.60;;
28724;SDS011;43472;48.980;9.646;2023-04-23T09:35:11;0.75;;;0.60;;
28724;SDS011;43472;48.980;9.646;2023-04-23T09:40:16;16.15;;;9.45;;
28724;SDS011;43472;48.980;9.646;2023-04-23T09:45:20;1.55;;;1.08;;
28724;SDS011;43472;48.980;9.646;2023-04-23T09:55:38;1.45;;;0.82;;
28724;SDS011;43472;48.980;9.646;2023-04-23T10:00:42;1.15;;;0.98;;
28724;SDS011;43472;48.980;9.646;2023-04-23T10:05:44;0.65;;;0.65;;
28724;SDS011;43472;48.980;9.646;2023-04-23T10:11:02;1.45;;;0.80;;
28724;SDS011;43472;48.980;9.646;2023-04-23T10:16:21;1.45;;;1.10;;
28724;SDS011;43472;48.980;9.646;2023-04-23T10:21:33;1.63;;;1.05;;
28724;SDS011;43472;48.980;9.646;2023-04-23T10:26:55;2.00;;;1.40;;
28724;SDS011;43472;48.980;9.646;2023-04-23T10:32:02;0.93;;;0.80;;
28724;SDS011;43472;48.980;9.646;2023-04-23T10:37:09;0.80;;;0.75;;
28724;SDS011;43472;48.980;9.646;2023-04-23T10:42:12;1.10;;;0.80;;
28724;SDS011;43472;48.980;9.646;2023-04-23T10:47:15;2.83;;;0.95;;
28724;SDS011;43472;48.980;9.646;2023-04-23T10:52:18;1.85;;;0.60;;
28724;SDS011;43472;48.980;9.646;2023-04-23T10:57:26;0.98;;;0.82;;
28724;SDS011;43472;48.980;9.646;2023-04-23T11:02:28;0.63;;;0.63;;
28724;SDS011;43472;48.980;9.646;2023-04-23T11:13:19;0.57;;;0.57;;
28724;SDS011;43472;48.980;9.646;2023-04-23T11:18:22;0.50;;;0.50;;
28724;SDS011;43472;48.980;9.646;2023-04-23T11:23:30;1.70;;;0.98;;
28724;SDS011;43472;48.980;9.646;2023-04-23T11:28:33;0.47;;;0.40;;
28724;SDS011;43472;48.980;9.646;2023-04-23T11:33:37;0.73;;;0.68;;
28724;SDS011;43472;48.980;9.646;2023-04-23T11:38:39;1.05;;;0.60;;
28724;SDS011;43472;48.980;9.646;2023-04-23T11:43:42;0.60;;;0.50;;
28724;SDS011;43472;48.980;9.646;2023-04-23T11:48:44;0.65;;;0.50;;
28724;SDS011;43472;48.980;9.646;2023-04-23T11:53:46;3.58;;;0.80;;
28724;SDS011;43472;48.980;9.646;2023-04-23T11:58:58;1.65;;;1.05;;
28724;SDS011;43472;48.980;9.646;2023-04-23T12:04:18;0.85;;;0.52;;
28724;SDS011;43472;48.980;9.646;2023-04-23T12:09:41;1.10;;;0.50;;
28724;SDS011;43472;48.980;9.646;2023-04-23T12:14:46;1.65;;;0.50;;
28724;SDS011;43472;48.980;9.646;2023-04-23T12:19:48;2.30;;;0.40;;
28724;SDS011;43472;48.980;9.646;2023-04-23T12:24:51;0.77;;;0.40;;
28724;SDS011;43472;48.980;9.646;2023-04-23T12:30:00;1.05;;;0.50;;
28724;SDS011;43472;48.980;9.646;2023-04-23T12:35:06;2.40;;;0.50;;
28724;SDS011;43472;48.980;9.646;2023-04-23T12:40:10;0.52;;;0.38;;
28724;SDS011;43472;48.980;9.646;2023-04-23T12:45:12;1.27;;;0.70;;
28724;SDS011;43472;48.980;9.646;2023-04-23T12:50:14;0.40;;;0.40;;
28724;SDS011;43472;48.980;9.646;2023-04-23T12:55:16;0.63;;;0.45;;
28724;SDS011;43472;48.980;9.646;2023-04-23T13:00:18;0.85;;;0.43;;
28724;SDS011;43472;48.980;9.646;2023-04-23T13:05:20;1.15;;;0.55;;
28724;SDS011;43472;48.980;9.646;2023-04-23T13:10:23;0.90;;;0.40;;
28724;SDS011;43472;48.980;9.646;2023-04-23T13:15:25;0.70;;;0.40;;
28724;SDS011;43472;48.980;9.646;2023-04-23T13:20:27;0.60;;;0.40;;
28724;SDS011;43472;48.980;9.646;2023-04-23T13:25:31;0.60;;;0.60;;
28724;SDS011;43472;48.980;9.646;2023-04-23T13:30:32;0.50;;;0.35;;
28724;SDS011;43472;48.980;9.646;2023-04-23T13:35:34;2.42;;;0.20;;
28724;SDS011;43472;48.980;9.646;2023-04-23T13:40:38;0.60;;;0.30;;
28724;SDS011;43472;48.980;9.646;2023-04-23T13:45:40;0.80;;;0.38;;
28724;SDS011;43472;48.980;9.646;2023-04-23T13:50:41;0.55;;;0.40;;
28724;SDS011;43472;48.980;9.646;2023-04-23T13:55:45;0.50;;;0.50;;
28724;SDS011;43472;48.980;9.646;2023-04-23T14:00:47;1.15;;;0.55;;
28724;SDS011;43472;48.980;9.646;2023-04-23T14:05:49;1.13;;;0.90;;
28724;SDS011;43472;48.980;9.646;2023-04-23T14:10:51;0.52;;;0.30;;
28724;SDS011;43472;48.980;9.646;2023-04-23T14:15:53;1.35;;;0.45;;
28724;SDS011;43472;48.980;9.646;2023-04-23T14:20:55;1.65;;;0.50;;
28724;SDS011;43472;48.980;9.646;2023-04-23T14:25:58;1.65;;;0.40;;
28724;SDS011;43472;48.980;9.646;2023-04-23T14:31:04;0.30;;;0.30;;
28724;SDS011;43472;48.980;9.646;2023-04-23T14:36:06;1.58;;;0.60;;
28724;SDS011;43472;48.980;9.646;2023-04-23T14:41:08;1.00;;;0.50;;
28724;SDS011;43472;48.980;9.646;2023-04-23T14:46:10;0.77;;;0.40;;
28724;SDS011;43472;48.980;9.646;2023-04-23T14:51:12;1.10;;;0.50;;
28724;SDS011;43472;48.980;9.646;2023-04-23T14:56:14;4.05;;;0.60;;
28724;SDS011;43472;48.980;9.646;2023-04-23T15:01:16;0.70;;;0.45;;
28724;SDS011;43472;48.980;9.646;2023-04-23T15:06:19;1.52;;;0.80;;
28724;SDS011;43472;48.980;9.646;2023-04-23T15:11:21;0.85;;;0.40;;
28724;SDS011;43472;48.980;9.646;2023-04-23T15:16:27;1.30;;;0.60;;
28724;SDS011;43472;48.980;9.646;2023-04-23T15:21:37;2.85;;;0.60;;
28724;SDS011;43472;48.980;9.646;2023-04-23T15:26:39;1.50;;;0.50;;
28724;SDS011;43472;48.980;9.646;2023-04-23T15:31:41;1.25;;;0.55;;
28724;SDS011;43472;48.980;9.646;2023-04-23T15:36:44;1.70;;;0.60;;
28724;SDS011;43472;48.980;9.646;2023-04-23T15:41:45;1.08;;;0.70;;
28724;SDS011;43472;48.980;9.646;2023-04-23T15:46:48;3.38;;;0.90;;
28724;SDS011;43472;48.980;9.646;2023-04-23T15:51:50;3.20;;;0.70;;
28724;SDS011;43472;48.980;9.646;2023-04-23T15:56:52;1.08;;;0.52;;
28724;SDS011;43472;48.980;9.646;2023-04-23T16:01:56;1.40;;;0.60;;
28724;SDS011;43472;48.980;9.646;2023-04-23T16:06:58;0.90;;;0.43;;
28724;SDS011;43472;48.980;9.646;2023-04-23T16:12:00;0.93;;;0.47;;
28724;SDS011;43472;48.980;9.646;2023-04-23T16:17:02;1.15;;;0.70;;
28724;SDS011;43472;48.980;9.646;2023-04-23T16:22:04;1.00;;;0.45;;
28724;SDS011;43472;48.980;9.646;2023-04-23T16:27:06;0.95;;;0.60;;
28724;SDS011;43472;48.980;9.646;2023-04-23T16:32:10;2.28;;;0.52;;
28724;SDS011;43472;48.980;9.646;2023-04-23T16:37:12;4.75;;;0.77;;
28724;SDS011;43472;48.980;9.646;2023-04-23T16:42:16;2.17;;;0.73;;
28724;SDS011;43472;48.980;9.646;2023-04-23T16:47:17;1.58;;;0.40;;
28724;SDS011;43472;48.980;9.646;2023-04-23T16:52:19;2.15;;;0.38;;
28724;SDS011;43472;48.980;9.646;2023-04-23T16:57:21;2.72;;;0.77;;
28724;SDS011;43472;48.980;9.646;2023-04-23T17:02:23;6.00;;;0.90;;
28724;SDS011;43472;48.980;9.646;2023-04-23T17:07:26;2.05;;;0.95;;
28724;SDS011;43472;48.980;9.646;2023-04-23T17:12:28;2.47;;;1.25;;
28724;SDS011;43472;48.980;9.646;2023-04-23T17:17:30;6.28;;;1.70;;
28724;SDS011;43472;48.980;9.646;2023-04-23T17:22:31;1.92;;;1.10;;
28724;SDS011;43472;48.980;9.646;2023-04-23T17:27:34;2.53;;;0.95;;
28724;SDS011;43472;48.980;9.646;2023-04-23T17:32:36;1.83;;;1.13;;
28724;SDS011;43472;48.980;9.646;2023-04-23T17:37:39;2.53;;;0.80;;
28724;SDS011;43472;48.980;9.646;2023-04-23T17:42:41;3.63;;;1.20;;
28724;SDS011;43472;48.980;9.646;2023-04-23T17:47:44;5.53;;;1.50;;
28724;SDS011;43472;48.980;9.646;2023-04-23T17:52:46;5.18;;;2.40;;
28724;SDS011;43472;48.980;9.646;2023-04-23T17:57:49;4.05;;;1.30;;
28724;SDS011;43472;48.980;9.646;2023-04-23T18:02:51;3.55;;;1.05;;
28724;SDS011;43472;48.980;9.646;2023-04-23T18:07:53;1.90;;;1.08;;
28724;SDS011;43472;48.980;9.646;2023-04-23T18:12:55;1.80;;;0.98;;
28724;SDS011;43472;48.980;9.646;2023-04-23T18:17:58;1.05;;;0.82;;
28724;SDS011;43472;48.980;9.646;2023-04-23T18:23:00;2.63;;;1.00;;
28724;SDS011;43472;48.980;9.646;2023-04-23T18:28:02;3.47;;;0.80;;
28724;SDS011;43472;48.980;9.646;2023-04-23T18:38:10;3.63;;;1.08;;
28724;SDS011;43472;48.980;9.646;2023-04-23T18:43:23;6.75;;;1.45;;
28724;SDS011;43472;48.980;9.646;2023-04-23T18:53:33;3.17;;;1.58;;
28724;SDS011;43472;48.980;9.646;2023-04-23T18:58:37;4.15;;;1.45;;
28724;SDS011;43472;48.980;9.646;2023-04-23T19:03:39;2.88;;;1.80;;
28724;SDS011;43472;48.980;9.646;2023-04-23T19:08:41;4.57;;;1.52;;
28724;SDS011;43472;48.980;9.646;2023-04-23T19:13:43;1.60;;;1.50;;
28724;SDS011;43472;48.980;9.646;2023-04-23T19:18:45;2.88;;;1.65;;
28724;SDS011;43472;48.980;9.646;2023-04-23T19:23:48;8.23;;;3.28;;
28724;SDS011;43472;48.980;9.646;2023-04-23T19:28:52;12.48;;;4.13;;
28724;SDS011;43472;48.980;9.646;2023-04-23T19:33:54;4.35;;;2.20;;
28724;SDS011;43472;48.980;9.646;2023-04-23T19:38:57;4.47;;;2.17;;
28724;SDS011;43472;48.980;9.646;2023-04-23T19:43:59;2.90;;;1.55;;
28724;SDS011;43472;48.980;9.646;2023-04-23T19:49:01;4.30;;;1.60;;
28724;SDS011;43472;48.980;9.646;2023-04-23T19:54:03;4.80;;;1.70;;
28724;SDS011;43472;48.980;9.646;2023-04-23T19:59:06;4.57;;;2.47;;
28724;SDS011;43472;48.980;9.646;2023-04-23T20:04:09;3.58;;;2.10;;
28724;SDS011;43472;48.980;9.646;2023-04-23T20:09:12;3.25;;;2.38;;
28724;SDS011;43472;48.980;9.646;2023-04-23T20:14:21;5.13;;;1.92;;
28724;SDS011;43472;48.980;9.646;2023-04-23T20:19:23;2.63;;;1.35;;
28724;SDS011;43472;48.980;9.646;2023-04-23T20:24:26;2.15;;;1.50;;
28724;SDS011;43472;48.980;9.646;2023-04-23T20:29:28;14.57;;;8.15;;
28724;SDS011;43472;48.980;9.646;2023-04-23T20:34:31;2.35;;;1.27;;
28724;SDS011;43472;48.980;9.646;2023-04-23T20:39:34;2.33;;;1.45;;
28724;SDS011;43472;48.980;9.646;2023-04-23T20:44:37;2.50;;;1.60;;
28724;SDS011;43472;48.980;9.646;2023-04-23T20:49:41;2.50;;;1.27;;
28724;SDS011;43472;48.980;9.646;2023-04-23T20:54:44;3.25;;;1.30;;
28724;SDS011;43472;48.980;9.646;2023-04-23T20:59:46;4.70;;;1.52;;
28724;SDS011;43472;48.980;9.646;2023-04-23T21:04:48;4.43;;;1.40;;
28724;SDS011;43472;48.980;9.646;2023-04-23T21:09:50;3.03;;;1.48;;
28724;SDS011;43472;48.980;9.646;2023-04-23T21:14:52;2.38;;;1.33;;
28724;SDS011;43472;48.980;9.646;2023-04-23T21:19:54;0.80;;;0.80;;
28724;SDS011;43472;48.980;9.646;2023-04-23T21:24:56;4.15;;;2.03;;
28724;SDS011;43472;48.980;9.646;2023-04-23T21:29:59;2.42;;;0.93;;
28724;SDS011;43472;48.980;9.646;2023-04-23T21:35:04;3.13;;;1.30;;
28724;SDS011;43472;48.980;9.646;2023-04-23T21:40:07;2.38;;;1.13;;
28724;SDS011;43472;48.980;9.646;2023-04-23T21:45:10;2.50;;;1.10;;
28724;SDS011;43472;48.980;9.646;2023-04-23T21:50:12;0.90;;;0.60;;
28724;SDS011;43472;48.980;9.646;2023-04-23T21:55:14;3.10;;;0.80;;
28724;SDS011;43472;48.980;9.646;2023-04-23T22:00:16;1.10;;;0.80;;
28724;SDS011;43472;48.980;9.646;2023-04-23T22:05:21;3.05;;;0.93;;
28724;SDS011;43472;48.980;9.646;2023-04-23T22:10:23;1.30;;;0.60;;
28724;SDS011;43472;48.980;9.646;2023-04-23T22:15:26;2.28;;;1.17;;
28724;SDS011;43472;48.980;9.646;2023-04-23T22:20:29;1.88;;;0.63;;
28724;SDS011;43472;48.980;9.646;2023-04-23T22:25:31;1.58;;;0.70;;
28724;SDS011;43472;48.980;9.646;2023-04-23T22:30:33;2.42;;;0.65;;
28724;SDS011;43472;48.980;9.646;2023-04-23T22:35:35;1.40;;;0.77;;
28724;SDS011;43472;48.980;9.646;2023-04-23T22:40:37;2.33;;;0.43;;
28724;SDS011;43472;48.980;9.646;2023-04-23T22:45:39;3.70;;;0.80;;
28724;SDS011;43472;48.980;9.646;2023-04-23T22:50:41;0.52;;;0.40;;
28724;SDS011;43472;48.980;9.646;2023-04-23T22:55:44;1.02;;;0.68;;
28724;SDS011;43472;48.980;9.646;2023-04-23T23:00:46;1.67;;;0.52;;
28724;SDS011;43472;48.980;9.646;2023-04-23T23:05:48;1.23;;;0.38;;
28724;SDS011;43472;48.980;9.646;2023-04-23T23:10:50;1.17;;;0.52;;
28724;SDS011;43472;48.980;9.646;2023-04-23T23:15:52;0.93;;;0.50;;
28724;SDS011;43472;48.980;9.646;2023-04-23T23:20:54;1.05;;;0.50;;
28724;SDS011;43472;48.980;9.646;2023-04-23T23:25:56;9.13;;;1.15;;
28724;SDS011;43472;48.980;9.646;2023-04-23T23:31:00;4.18;;;1.70;;
28724;SDS011;43472;48.980;9.646;2023-04-23T23:36:02;3.05;;;1.45;;
28724;SDS011;43472;48.980;9.646;2023-04-23T23:41:04;3.65;;;0.70;;
28724;SDS011;43472;48.980;9.646;2023-04-23T23:46:06;9.82;;;1.42;;
28724;SDS011;43472;48.980;9.646;2023-04-23T23:51:09;2.45;;;0.75;;
28724;SDS011;43472;48.980;9.646;2023-04-23T23:56:11;1.48;;;0.80;;
